Time;durP1;ratioP1;P1;durP2;ratioP2;P2;SDS_P1;SDS_P2;PMS_P1;PMS_P2;Temp;Humidity;BMP_temperature;BMP_pressure;BME280_temperature;BME280_humidity;BME280_pressure;Samples;Min_cycle;Max_cycle;Signal;HPM_P1;HPM_P2
2022/05/11 00:00:18;;;;;;;11.90;10.10;;;12.20;99.90;;;;;;5015048;28;20175;-85
2022/05/11 00:02:44;;;;;;;12.10;9.33;;;12.30;99.90;;;;;;5013975;28;20849;-85
2022/05/11 00:05:14;;;;;;;16.93;10.30;;;12.30;99.90;;;;;;5015152;28;20512;-86
2022/05/11 00:07:45;;;;;;;11.73;9.73;;;12.30;99.90;;;;;;5015174;28;20418;-85
2022/05/11 00:10:13;;;;;;;13.90;11.00;;;12.30;99.90;;;;;;5015255;28;20413;-86
2022/05/11 00:12:41;;;;;;;13.27;11.07;;;12.40;99.90;;;;;;5015100;28;20491;-87
2022/05/11 00:15:07;;;;;;;14.53;10.90;;;12.40;99.90;;;;;;5014499;28;20420;-85
2022/05/11 00:17:33;;;;;;;13.93;9.90;;;12.40;99.90;;;;;;5014348;28;20526;-85
2022/05/11 00:19:58;;;;;;;13.93;11.03;;;12.40;99.90;;;;;;5014781;28;20519;-85
2022/05/11 00:22:24;;;;;;;14.90;11.40;;;12.40;99.90;;;;;;5031037;28;20556;-85
2022/05/11 00:24:49;;;;;;;13.53;11.47;;;12.40;99.90;;;;;;5034585;28;20172;-85
2022/05/11 00:27:15;;;;;;;16.00;10.90;;;12.30;99.90;;;;;;5016854;28;20179;-85
2022/05/11 00:29:41;;;;;;;15.43;11.67;;;12.30;99.90;;;;;;5034218;28;20259;-85
2022/05/11 00:32:07;;;;;;;14.83;13.23;;;12.30;99.90;;;;;;5034405;28;20676;-85
2022/05/11 00:34:32;;;;;;;15.17;12.53;;;12.30;99.90;;;;;;5016722;28;20179;-85
2022/05/11 00:36:59;;;;;;;13.63;11.50;;;12.30;99.90;;;;;;5034336;28;20448;-85
2022/05/11 00:39:25;;;;;;;14.20;10.43;;;12.30;99.90;;;;;;5034345;28;20172;-85
2022/05/11 00:41:51;;;;;;;15.20;12.07;;;12.30;99.90;;;;;;5034360;28;20412;-85
2022/05/11 00:44:17;;;;;;;17.17;11.20;;;12.30;99.90;;;;;;5034324;28;20414;-85
2022/05/11 00:46:51;;;;;;;15.80;10.07;;;12.30;99.90;;;;;;5016083;28;20967;-86
2022/05/11 00:49:35;;;;;;;16.50;12.03;;;12.30;99.90;;;;;;5016524;28;20178;-85
2022/05/11 00:52:17;;;;;;;15.63;11.13;;;12.40;99.90;;;;;;5034097;28;20473;-88
2022/05/11 00:54:51;;;;;;;13.30;11.27;;;12.30;99.90;;;;;;5034151;28;20502;-85
2022/05/11 00:57:31;;;;;;;17.23;11.00;;;12.30;99.90;;;;;;5033988;28;20401;-85
2022/05/11 00:59:58;;;;;;;15.43;10.60;;;12.30;99.90;;;;;;5033709;28;20414;-85
2022/05/11 01:02:25;;;;;;;17.97;12.30;;;12.30;99.90;;;;;;5033924;28;20907;-88
2022/05/11 01:04:55;;;;;;;12.53;10.67;;;12.30;99.90;;;;;;5033950;28;20419;-87
2022/05/11 01:07:21;;;;;;;15.60;11.17;;;12.30;99.90;;;;;;5033950;28;20405;-88
2022/05/11 01:09:46;;;;;;;14.90;11.37;;;12.30;99.90;;;;;;5016222;28;20455;-87
2022/05/11 01:12:16;;;;;;;18.07;12.33;;;12.30;99.90;;;;;;5033862;28;20624;-86
2022/05/11 01:14:45;;;;;;;21.70;14.50;;;12.20;99.90;;;;;;5033510;28;20168;-88
2022/05/11 01:17:12;;;;;;;11.73;10.40;;;12.30;99.90;;;;;;5033806;28;20907;-85
2022/05/11 01:19:41;;;;;;;13.60;11.57;;;12.30;99.90;;;;;;5033739;28;20416;-86
2022/05/11 01:22:26;;;;;;;16.73;11.07;;;12.30;99.90;;;;;;5015860;28;20838;-86
2022/05/11 01:24:52;;;;;;;14.30;11.47;;;12.30;99.90;;;;;;5033616;28;20443;-86
2022/05/11 01:27:28;;;;;;;13.40;10.40;;;12.20;99.90;;;;;;5033572;28;20512;-86
2022/05/11 01:29:57;;;;;;;13.87;12.37;;;12.20;99.90;;;;;;5014513;28;20181;-86
2022/05/11 01:32:25;;;;;;;13.13;11.27;;;12.20;99.90;;;;;;5033315;28;20884;-85
2022/05/11 01:35:07;;;;;;;11.90;10.27;;;12.20;99.90;;;;;;5033198;28;20422;-86
2022/05/11 01:37:39;;;;;;;16.17;11.60;;;12.20;99.90;;;;;;5015369;28;20429;-86
2022/05/11 01:40:05;;;;;;;13.40;10.73;;;12.20;99.90;;;;;;5033259;28;20503;-85
2022/05/11 01:42:31;;;;;;;16.30;12.00;;;12.20;99.90;;;;;;5033282;28;20414;-86
2022/05/11 01:44:57;;;;;;;12.43;9.87;;;12.20;99.90;;;;;;5032942;28;20408;-86
2022/05/11 01:47:22;;;;;;;14.00;10.87;;;12.20;99.90;;;;;;5015558;28;20527;-85
2022/05/11 01:49:48;;;;;;;18.97;12.70;;;12.30;99.90;;;;;;5033202;28;20214;-86
2022/05/11 01:52:13;;;;;;;11.90;10.37;;;12.20;99.90;;;;;;5015259;28;20218;-86
2022/05/11 01:54:39;;;;;;;18.00;11.90;;;12.30;99.90;;;;;;5015469;28;20180;-86
2022/05/11 01:57:04;;;;;;;12.10;9.53;;;12.30;99.90;;;;;;5033154;28;20226;-86
2022/05/11 01:59:30;;;;;;;13.77;10.43;;;12.30;99.90;;;;;;5015076;28;20195;-85
2022/05/11 02:01:55;;;;;;;11.63;10.30;;;12.30;99.90;;;;;;5033027;28;20536;-85
2022/05/11 02:09:49;;;;;;;12.03;10.20;;;12.20;99.90;;;;;;5033162;28;20448;-86
2022/05/11 02:12:15;;;;;;;13.00;10.13;;;12.20;99.90;;;;;;5032832;28;20871;-86
2022/05/11 02:14:40;;;;;;;16.23;11.97;;;12.20;99.90;;;;;;5032680;28;21378;-86
2022/05/11 02:17:07;;;;;;;12.07;10.70;;;12.20;99.90;;;;;;5015212;28;20680;-85
2022/05/11 02:19:32;;;;;;;13.00;11.00;;;12.30;99.90;;;;;;5032866;28;20180;-86
2022/05/11 02:21:58;;;;;;;12.70;10.40;;;12.20;99.90;;;;;;5032594;28;20828;-85
2022/05/11 02:24:24;;;;;;;12.80;11.50;;;12.30;99.90;;;;;;5014993;28;20179;-86
2022/05/11 02:26:49;;;;;;;14.10;11.67;;;12.30;99.90;;;;;;5032853;28;20423;-86
2022/05/11 02:29:15;;;;;;;12.70;10.10;;;12.30;99.90;;;;;;5032749;28;20258;-85
2022/05/11 02:31:40;;;;;;;12.10;10.60;;;12.30;99.90;;;;;;5032331;28;20208;-85
2022/05/11 02:34:07;;;;;;;14.37;10.60;;;12.40;99.90;;;;;;5032638;28;20664;-86
2022/05/11 02:36:34;;;;;;;12.93;10.10;;;12.30;99.90;;;;;;5032703;28;20171;-85
2022/05/11 02:39:00;;;;;;;14.73;11.23;;;12.30;99.90;;;;;;5015012;28;20967;-85
2022/05/11 02:41:26;;;;;;;13.60;11.37;;;12.30;99.90;;;;;;5017954;28;20434;-86
2022/05/11 02:43:52;;;;;;;13.40;11.30;;;12.30;99.90;;;;;;5036595;28;20510;-86
2022/05/11 02:46:17;;;;;;;14.20;11.23;;;12.30;99.90;;;;;;5018296;28;20177;-86
2022/05/11 02:48:43;;;;;;;15.80;10.90;;;12.20;99.90;;;;;;5036600;28;20185;-85
2022/05/11 02:51:09;;;;;;;12.47;10.70;;;12.20;99.90;;;;;;5036029;28;20176;-86
2022/05/11 02:53:35;;;;;;;13.33;11.40;;;12.30;99.90;;;;;;5036467;28;20204;-85
2022/05/11 02:56:01;;;;;;;13.27;11.13;;;12.20;99.90;;;;;;5036365;28;20858;-85
2022/05/11 02:58:29;;;;;;;15.27;11.70;;;12.20;99.90;;;;;;5036315;28;20179;-85
2022/05/11 03:00:58;;;;;;;14.23;10.90;;;12.20;99.90;;;;;;5018185;28;20427;-85
2022/05/11 03:03:24;;;;;;;15.03;11.33;;;12.20;99.90;;;;;;5036175;28;20779;-86
2022/05/11 03:05:52;;;;;;;15.40;10.47;;;12.30;99.90;;;;;;5036439;28;20397;-86
2022/05/11 03:08:18;;;;;;;13.87;11.70;;;12.30;99.90;;;;;;5036045;28;20177;-86
2022/05/11 03:10:44;;;;;;;13.47;12.00;;;12.30;99.90;;;;;;5036136;28;20845;-86
2022/05/11 03:13:10;;;;;;;13.33;12.00;;;12.30;99.90;;;;;;5036008;28;20468;-86
2022/05/11 03:15:36;;;;;;;11.80;10.37;;;12.20;99.90;;;;;;5035763;28;20215;-87
2022/05/11 03:18:03;;;;;;;12.20;9.50;;;12.20;99.90;;;;;;5035995;28;20422;-87
2022/05/11 03:20:28;;;;;;;12.17;10.30;;;12.20;99.90;;;;;;5039478;28;20487;-85
2022/05/11 03:22:54;;;;;;;13.10;10.40;;;12.20;99.90;;;;;;5043475;28;20425;-85
2022/05/11 03:25:21;;;;;;;12.60;11.20;;;12.10;99.90;;;;;;5044525;28;20251;-85
2022/05/11 03:27:47;;;;;;;12.40;9.90;;;12.10;99.90;;;;;;5045987;28;20450;-85
2022/05/11 03:30:13;;;;;;;13.50;11.43;;;12.10;99.90;;;;;;5038787;28;20451;-85
2022/05/11 03:35:23;;;;;;;12.10;10.73;;;12.10;99.90;;;;;;5035924;28;20433;-87
2022/05/11 03:37:48;;;;;;;13.10;10.63;;;12.10;99.90;;;;;;5035620;28;20420;-86
2022/05/11 03:40:14;;;;;;;12.57;10.73;;;12.10;99.90;;;;;;5035644;28;20168;-85
2022/05/11 03:42:41;;;;;;;12.20;10.77;;;12.10;99.90;;;;;;5035917;28;20656;-86
2022/05/11 03:45:16;;;;;;;14.20;11.40;;;12.20;99.90;;;;;;5036915;28;20263;-86
2022/05/11 03:47:42;;;;;;;12.40;11.20;;;12.20;99.90;;;;;;5038641;28;20786;-85
2022/05/11 03:50:08;;;;;;;14.10;11.83;;;12.20;99.90;;;;;;5036590;28;20412;-85
2022/05/11 03:52:34;;;;;;;18.20;12.33;;;12.20;99.90;;;;;;5034252;28;20212;-86
2022/05/11 03:55:00;;;;;;;13.43;11.23;;;12.20;99.90;;;;;;5035272;28;20210;-87
2022/05/11 03:57:25;;;;;;;17.73;9.90;;;12.20;99.90;;;;;;5035615;28;20446;-87
2022/05/11 03:59:51;;;;;;;13.03;11.37;;;12.20;99.90;;;;;;5017251;28;20171;-86
2022/05/11 04:02:17;;;;;;;14.00;10.13;;;12.10;99.90;;;;;;5017439;28;20178;-86
2022/05/11 04:04:42;;;;;;;14.77;12.33;;;12.20;99.90;;;;;;5017433;28;20176;-86
2022/05/11 04:07:08;;;;;;;13.97;10.80;;;12.20;99.90;;;;;;5017279;28;20534;-87
2022/05/11 04:09:33;;;;;;;13.30;10.70;;;12.30;99.90;;;;;;5035149;28;20169;-87
2022/05/11 04:11:59;;;;;;;11.93;9.77;;;12.30;99.90;;;;;;5017088;28;20260;-87
2022/05/11 04:14:24;;;;;;;14.83;11.70;;;12.30;99.90;;;;;;5016853;28;20186;-87
2022/05/11 04:16:56;;;;;;;16.17;12.60;;;12.40;99.90;;;;;;5034928;28;20166;-86
2022/05/11 04:19:21;;;;;;;13.03;11.40;;;12.40;99.90;;;;;;5016969;28;20671;-86
2022/05/11 04:21:47;;;;;;;16.60;11.60;;;12.40;99.90;;;;;;5016768;28;20546;-86
2022/05/11 04:24:12;;;;;;;19.50;13.33;;;12.40;99.90;;;;;;5034759;28;20659;-87
2022/05/11 04:26:38;;;;;;;15.07;12.00;;;12.40;99.90;;;;;;5016998;28;20294;-87
2022/05/11 04:29:07;;;;;;;12.67;11.37;;;12.50;99.90;;;;;;5034196;28;20171;-86
2022/05/11 04:31:32;;;;;;;18.83;12.37;;;12.50;99.90;;;;;;5016858;28;20456;-87
2022/05/11 04:33:58;;;;;;;15.50;12.30;;;12.60;99.90;;;;;;5034636;28;20416;-87
2022/05/11 04:36:23;;;;;;;16.37;12.27;;;12.60;99.90;;;;;;5016869;28;20230;-87
2022/05/11 04:38:49;;;;;;;17.90;14.07;;;12.70;99.90;;;;;;5034887;28;20177;-87
2022/05/11 04:41:14;;;;;;;14.27;11.73;;;12.60;99.90;;;;;;5034653;28;20267;-87
2022/05/11 04:43:40;;;;;;;13.30;11.93;;;12.70;99.90;;;;;;5034495;28;20165;-87
2022/05/11 04:46:05;;;;;;;16.13;13.13;;;12.70;99.90;;;;;;5034105;28;20170;-85
2022/05/11 04:48:31;;;;;;;15.97;11.60;;;12.70;99.90;;;;;;5034213;28;20173;-86
2022/05/11 04:51:01;;;;;;;14.77;13.17;;;12.80;99.90;;;;;;5034270;28;20252;-87
2022/05/11 04:53:27;;;;;;;17.33;12.97;;;12.80;99.90;;;;;;5034147;28;20207;-85
2022/05/11 04:55:52;;;;;;;16.80;13.70;;;12.80;99.90;;;;;;5034110;28;20414;-87
2022/05/11 04:58:18;;;;;;;18.30;13.60;;;12.80;99.90;;;;;;5016217;28;20186;-86
2022/05/11 05:00:44;;;;;;;13.17;11.70;;;12.80;99.90;;;;;;5033733;28;20198;-85
2022/05/11 05:03:11;;;;;;;18.20;13.47;;;12.80;99.90;;;;;;5033840;28;20164;-85
2022/05/11 05:05:37;;;;;;;15.40;12.83;;;12.80;99.90;;;;;;5033915;28;20533;-85
2022/05/11 05:08:03;;;;;;;18.00;12.23;;;12.80;99.90;;;;;;5033982;28;20424;-85
2022/05/11 05:10:28;;;;;;;18.30;14.30;;;12.90;99.90;;;;;;5033938;28;20476;-85
2022/05/11 05:12:54;;;;;;;17.37;13.77;;;12.80;99.90;;;;;;5033670;28;20632;-86
2022/05/11 05:15:21;;;;;;;16.43;13.40;;;12.90;99.90;;;;;;5033525;28;20200;-85
2022/05/11 05:17:50;;;;;;;17.57;13.47;;;12.90;99.90;;;;;;5033741;28;20181;-86
2022/05/11 05:20:16;;;;;;;17.37;13.37;;;12.90;99.90;;;;;;5033497;28;20474;-86
2022/05/11 05:22:41;;;;;;;19.20;13.70;;;12.90;99.90;;;;;;5033480;28;20514;-86
2022/05/11 05:25:07;;;;;;;15.53;13.20;;;12.90;99.90;;;;;;5015750;28;20188;-85
2022/05/11 05:27:33;;;;;;;15.20;13.00;;;13.00;99.90;;;;;;5033389;28;20184;-85
2022/05/11 05:32:44;;;;;;;15.23;12.73;;;13.00;99.90;;;;;;5032884;28;20216;-87
2022/05/11 05:35:15;;;;;;;16.77;14.37;;;13.10;99.90;;;;;;5013933;28;20422;-87
2022/05/11 05:37:40;;;;;;;19.93;13.90;;;13.10;99.90;;;;;;5012369;28;20436;-85
2022/05/11 05:40:07;;;;;;;17.03;12.93;;;13.10;99.90;;;;;;5032778;28;20691;-85
2022/05/11 05:42:32;;;;;;;16.57;14.17;;;13.10;99.90;;;;;;5032692;28;20186;-84
2022/05/11 05:44:58;;;;;;;17.73;14.53;;;13.20;99.90;;;;;;5032193;28;20414;-83
2022/05/11 05:47:23;;;;;;;21.30;15.37;;;13.20;99.90;;;;;;5033078;28;20175;-85
2022/05/11 05:49:49;;;;;;;19.60;14.57;;;13.20;99.90;;;;;;5033087;28;20249;-85
2022/05/11 05:52:17;;;;;;;17.77;15.87;;;13.30;99.90;;;;;;5033157;28;20727;-85
2022/05/11 05:54:44;;;;;;;18.80;15.10;;;13.40;99.90;;;;;;5033080;28;20181;-86
2022/05/11 05:57:09;;;;;;;27.23;16.67;;;13.40;99.90;;;;;;5033083;28;20503;-86
2022/05/11 05:59:35;;;;;;;21.80;16.77;;;13.40;99.90;;;;;;5032724;28;20436;-86
2022/05/11 06:02:00;;;;;;;24.50;16.10;;;13.40;99.90;;;;;;5015217;28;20174;-85
2022/05/11 06:04:26;;;;;;;20.20;15.13;;;13.50;99.90;;;;;;5032961;28;20755;-85
2022/05/11 06:06:52;;;;;;;23.20;18.50;;;13.50;99.90;;;;;;5032934;28;20173;-86
2022/05/11 06:09:17;;;;;;;22.33;16.37;;;13.50;99.90;;;;;;5032835;28;20635;-86
2022/05/11 06:11:43;;;;;;;18.90;16.70;;;13.50;99.90;;;;;;5032812;28;20569;-85
2022/05/11 06:14:09;;;;;;;21.50;16.30;;;13.50;99.90;;;;;;5032390;28;20181;-84
2022/05/11 06:16:35;;;;;;;23.50;15.00;;;13.50;99.90;;;;;;5032451;28;20170;-85
2022/05/11 06:19:00;;;;;;;25.10;18.20;;;13.50;99.90;;;;;;5032865;28;20702;-85
2022/05/11 06:21:26;;;;;;;20.40;17.80;;;13.60;99.90;;;;;;5032543;28;20492;-85
2022/05/11 06:23:51;;;;;;;20.70;15.43;;;13.60;99.90;;;;;;5032776;28;20190;-87
2022/05/11 06:26:17;;;;;;;19.00;15.80;;;13.70;99.90;;;;;;5032800;28;20184;-86
2022/05/11 06:28:45;;;;;;;19.33;16.40;;;13.70;99.90;;;;;;5032369;28;20183;-86
2022/05/11 06:31:11;;;;;;;21.37;16.13;;;13.70;99.90;;;;;;5014953;28;20463;-85
2022/05/11 06:33:37;;;;;;;19.60;15.20;;;13.80;99.90;;;;;;5014944;28;20429;-84
2022/05/11 06:36:04;;;;;;;17.30;15.33;;;13.80;99.90;;;;;;5032641;28;20417;-85
2022/05/11 06:38:30;;;;;;;17.60;13.83;;;13.80;99.90;;;;;;5032596;28;20178;-84
2022/05/11 06:40:55;;;;;;;17.10;12.87;;;13.80;99.90;;;;;;5014905;28;20412;-85
2022/05/11 06:43:21;;;;;;;20.47;14.60;;;13.80;99.90;;;;;;5014827;28;20171;-85
2022/05/11 06:45:50;;;;;;;16.97;14.93;;;13.90;99.90;;;;;;5032201;28;20176;-87
2022/05/11 06:48:15;;;;;;;17.57;13.90;;;13.90;99.90;;;;;;5032503;28;20226;-87
2022/05/11 06:50:42;;;;;;;24.53;14.80;;;13.90;99.90;;;;;;5032422;28;20413;-84
2022/05/11 06:53:13;;;;;;;15.10;13.17;;;13.90;99.90;;;;;;5014664;28;20229;-84
2022/05/11 07:01:13;;;;;;;15.40;13.80;;;14.10;99.90;;;;;;5032669;28;20894;-84
2022/05/11 07:03:39;;;;;;;14.80;13.20;;;14.10;99.90;;;;;;5032486;28;20410;-85
2022/05/11 07:06:08;;;;;;;14.47;13.03;;;14.30;99.90;;;;;;5014809;28;20215;-86
2022/05/11 07:08:35;;;;;;;16.13;14.43;;;14.30;99.90;;;;;;5014801;28;20649;-85
2022/05/11 07:13:45;;;;;;;13.40;11.43;;;14.40;99.90;;;;;;5032057;28;20472;-86
2022/05/11 07:16:11;;;;;;;13.00;11.70;;;14.50;99.90;;;;;;5014842;28;20432;-87
2022/05/11 07:18:39;;;;;;;12.80;11.50;;;14.50;99.90;;;;;;5032323;28;20474;-86
2022/05/11 07:21:05;;;;;;;13.07;10.37;;;14.50;99.90;;;;;;5032092;28;20262;-87
2022/05/11 07:23:31;;;;;;;15.90;14.13;;;14.50;99.90;;;;;;5032395;28;20458;-86
2022/05/11 07:25:57;;;;;;;13.53;11.40;;;14.60;99.90;;;;;;5014740;28;20168;-87
2022/05/11 07:28:23;;;;;;;11.47;10.17;;;14.70;99.90;;;;;;5017331;28;20426;-86
2022/05/11 07:30:48;;;;;;;11.03;9.90;;;14.90;99.90;;;;;;5035529;28;20518;-86
2022/05/11 07:33:15;;;;;;;11.70;8.90;;;15.10;99.90;;;;;;5035882;28;20474;-86
2022/05/11 07:35:42;;;;;;;11.03;9.93;;;15.00;99.90;;;;;;5035983;28;20170;-86
2022/05/11 07:38:10;;;;;;;9.50;7.60;;;15.00;99.90;;;;;;5035809;28;20427;-84
2022/05/11 07:40:36;;;;;;;13.00;8.67;;;15.00;99.90;;;;;;5035810;28;20495;-86
2022/05/11 07:43:02;;;;;;;11.13;9.13;;;15.20;99.90;;;;;;5050993;28;20862;-84
2022/05/11 07:45:28;;;;;;;9.90;8.40;;;15.20;99.90;;;;;;5035420;28;20502;-87
2022/05/11 07:47:53;;;;;;;10.20;9.20;;;15.40;99.90;;;;;;5050912;28;20423;-84
2022/05/11 07:50:20;;;;;;;9.70;8.13;;;15.60;99.90;;;;;;5035498;28;20536;-84
2022/05/11 07:52:46;;;;;;;9.53;8.53;;;15.50;99.90;;;;;;5035417;28;20218;-84
2022/05/11 07:55:17;;;;;;;10.40;8.30;;;15.30;99.90;;;;;;5035540;28;20410;-84
2022/05/11 08:00:26;;;;;;;8.60;7.17;;;15.10;99.90;;;;;;5035077;28;20458;-85
2022/05/11 08:02:52;;;;;;;10.77;8.67;;;15.10;99.90;;;;;;5035148;28;20481;-84
2022/05/11 08:05:20;;;;;;;9.87;8.87;;;15.00;99.90;;;;;;5034280;28;20175;-83
2022/05/11 08:07:48;;;;;;;9.70;8.63;;;15.10;99.90;;;;;;5034853;28;20161;-84
2022/05/11 08:10:18;;;;;;;9.60;7.83;;;15.20;99.90;;;;;;5050892;28;20769;-85
2022/05/11 08:12:44;;;;;;;9.17;8.00;;;15.10;99.90;;;;;;5035066;28;20477;-84
2022/05/11 08:15:11;;;;;;;13.53;9.13;;;15.20;99.90;;;;;;5034848;28;20484;-87
2022/05/11 08:17:37;;;;;;;10.47;6.80;;;15.20;99.90;;;;;;5034984;28;20836;-83
2022/05/11 08:20:09;;;;;;;13.87;7.63;;;15.60;99.90;;;;;;5035021;28;20412;-81
2022/05/11 08:22:35;;;;;;;9.53;7.53;;;16.40;99.90;;;;;;5017035;28;20507;-84
2022/05/11 08:25:01;;;;;;;11.30;7.70;;;16.10;99.90;;;;;;5035002;28;20404;-85
2022/05/11 08:27:28;;;;;;;12.33;8.20;;;15.90;99.90;;;;;;5035017;28;20195;-85
2022/05/11 08:35:29;;;;;;;11.40;7.10;;;15.80;99.90;;;;;;5034935;28;20405;-84
2022/05/11 08:37:55;;;;;;;11.67;7.40;;;15.90;99.90;;;;;;5034254;28;20420;-83
2022/05/11 08:40:52;;;;;;;9.93;7.50;;;16.20;99.90;;;;;;5034730;28;20410;-85
2022/05/11 08:43:19;;;;;;;10.60;7.37;;;16.70;99.90;;;;;;5033811;28;20426;-85
2022/05/11 08:46:05;;;;;;;7.30;6.20;;;17.00;99.90;;;;;;5034574;28;20505;-85
2022/05/11 08:48:48;;;;;;;14.03;8.20;;;17.10;99.90;;;;;;5034652;28;20819;-84
2022/05/11 08:51:25;;;;;;;11.50;7.40;;;17.40;99.90;;;;;;5034425;28;20411;-85
2022/05/11 08:53:59;;;;;;;8.70;6.43;;;17.40;99.90;;;;;;5034636;28;20420;-86
2022/05/11 08:56:28;;;;;;;7.27;6.10;;;17.30;99.90;;;;;;5034417;28;20422;-84
2022/05/11 08:58:54;;;;;;;8.87;6.00;;;17.30;99.90;;;;;;5033910;28;20413;-85
2022/05/11 09:01:29;;;;;;;9.10;7.03;;;17.20;99.90;;;;;;5034197;28;20806;-85
2022/05/11 09:03:58;;;;;;;7.63;6.07;;;17.10;99.90;;;;;;5049620;28;20425;-86
2022/05/11 09:06:28;;;;;;;6.73;5.90;;;17.00;99.90;;;;;;5034507;28;20418;-84
2022/05/11 09:08:58;;;;;;;6.83;6.00;;;16.80;99.90;;;;;;5034093;28;20402;-83
2022/05/11 09:11:29;;;;;;;7.13;4.80;;;16.70;99.90;;;;;;5034369;28;20419;-88
2022/05/11 09:14:00;;;;;;;7.97;5.47;;;16.60;99.90;;;;;;5034146;28;20982;-86
2022/05/11 09:16:36;;;;;;;8.63;5.37;;;16.60;99.90;;;;;;5034347;28;20439;-87
2022/05/11 09:19:14;;;;;;;7.90;5.97;;;16.70;99.90;;;;;;5016775;28;20457;-87
2022/05/11 09:21:47;;;;;;;8.63;5.67;;;17.00;99.90;;;;;;5035044;28;20953;-85
2022/05/11 09:24:14;;;;;;;7.10;5.53;;;17.20;99.90;;;;;;5045556;28;20422;-83
2022/05/11 09:26:44;;;;;;;7.37;5.23;;;17.30;1.00;;;;;;5026548;28;20485;-88
2022/05/11 09:29:23;;;;;;;5.10;4.10;;;17.60;1.00;;;;;;5043478;28;20489;-87
2022/05/11 09:31:51;;;;;;;5.70;5.17;;;18.30;1.00;;;;;;5042126;28;20511;-89
2022/05/11 09:34:26;;;;;;;5.80;4.57;;;18.20;99.90;;;;;;5034227;28;20494;-89
2022/05/11 09:36:56;;;;;;;6.83;5.50;;;19.60;1.00;;;;;;5033646;28;20476;-85
2022/05/11 09:39:22;;;;;;;5.93;5.03;;;20.00;1.00;;;;;;5015965;28;20455;-88
2022/05/11 09:41:51;;;;;;;6.70;4.70;;;19.70;99.90;;;;;;5049388;28;20425;-84
2022/05/11 09:44:39;;;;;;;5.57;4.63;;;19.40;99.90;;;;;;5015785;28;20907;-87
2022/05/11 09:47:24;;;;;;;5.00;4.33;;;19.40;6.90;;;;;;5034249;28;21042;-87
2022/05/11 09:49:51;;;;;;;7.90;4.30;;;19.80;1.00;;;;;;5015622;28;20423;-88
2022/05/11 09:52:33;;;;;;;6.30;4.43;;;19.40;1.00;;;;;;5015811;28;20565;-84
2022/05/11 09:55:01;;;;;;;4.30;3.50;;;19.20;99.90;;;;;;5039246;28;20407;-88
2022/05/11 09:57:30;;;;;;;4.70;4.10;;;19.30;99.90;;;;;;5034722;28;20786;-87
2022/05/11 10:00:19;;;;;;;4.23;3.40;;;19.10;1.00;;;;;;5033043;28;20421;-83
2022/05/11 10:02:55;;;;;;;5.00;3.40;;;19.20;1.00;;;;;;5015451;28;20180;-88
2022/05/11 10:05:30;;;;;;;4.67;3.40;;;19.30;1.00;;;;;;5033329;28;20408;-83
2022/05/11 10:08:01;;;;;;;4.40;3.20;;;19.50;1.00;;;;;;5033159;28;20793;-85
2022/05/11 10:10:39;;;;;;;3.33;2.60;;;19.70;1.00;;;;;;5015486;28;20435;-87
2022/05/11 10:13:16;;;;;;;5.30;4.10;;;20.00;99.90;;;;;;5032665;28;20473;-88
2022/05/11 10:24:23;;;;;;;5.73;3.20;;;20.40;1.00;;;;;;5032898;28;20426;-83
2022/05/11 10:26:57;;;;;;;9.10;3.87;;;22.50;99.90;;;;;;5032936;28;20409;-85
2022/05/11 10:29:26;;;;;;;4.90;4.50;;;22.70;99.90;;;;;;5032551;28;20420;-88
2022/05/11 10:32:07;;;;;;;4.77;3.40;;;23.50;99.90;;;;;;5032616;28;20482;-85
2022/05/11 10:34:40;;;;;;;6.33;3.60;;;23.60;99.90;;;;;;5015143;28;20850;-88
2022/05/11 10:37:15;;;;;;;3.97;3.47;;;23.30;99.90;;;;;;5032739;28;20401;-86
2022/05/11 10:40:21;;;;;;;3.37;2.70;;;23.20;99.90;;;;;;5032702;28;20404;-86
2022/05/11 10:43:15;;;;;;;4.67;3.77;;;24.10;99.90;;;;;;5032711;28;20420;-86
2022/05/11 10:45:52;;;;;;;3.90;3.60;;;23.80;99.90;;;;;;5032572;28;20409;-86
2022/05/11 10:48:50;;;;;;;5.07;3.37;;;22.90;99.90;;;;;;5032622;28;20475;-87
2022/05/11 10:52:00;;;;;;;6.73;3.80;;;22.30;99.90;;;;;;5032535;28;20776;-86
2022/05/11 10:54:52;;;;;;;8.03;3.60;;;22.50;99.90;;;;;;5015053;28;20437;-87
2022/05/11 10:57:31;;;;;;;6.50;3.73;;;22.40;99.90;;;;;;5032699;28;20439;-84
2022/05/11 11:00:06;;;;;;;4.43;4.00;;;22.40;99.90;;;;;;5032226;28;20408;-84
2022/05/11 11:03:15;;;;;;;5.33;3.90;;;22.20;99.90;;;;;;5035532;28;20423;-83
2022/05/11 11:09:00;;;;;;;3.03;2.53;;;24.60;99.90;;;;;;5036335;28;20923;-84
2022/05/11 11:11:44;;;;;;;4.20;3.80;;;24.00;99.90;;;;;;5036008;28;20416;-85
2022/05/11 11:14:14;;;;;;;5.33;2.80;;;23.90;99.90;;;;;;5017970;28;20423;-86
2022/05/11 11:16:40;;;;;;;3.97;3.23;;;23.60;99.90;;;;;;5036205;28;20423;-84
2022/05/11 11:19:08;;;;;;;3.87;3.10;;;23.30;99.90;;;;;;5036133;28;20440;-84
2022/05/11 11:21:38;;;;;;;4.50;3.10;;;23.40;99.90;;;;;;5035716;28;20448;-85
2022/05/11 11:24:23;;;;;;;5.20;2.60;;;24.70;99.90;;;;;;5035736;28;20421;-85
2022/05/11 11:26:53;;;;;;;4.30;2.73;;;25.70;99.90;;;;;;5035935;28;20405;-85
2022/05/11 11:29:23;;;;;;;3.60;3.30;;;26.40;99.90;;;;;;5035446;28;20416;-86
2022/05/11 11:32:11;;;;;;;3.60;2.97;;;26.30;62.70;;;;;;5035847;28;20816;-85
2022/05/11 11:34:51;;;;;;;4.10;3.70;;;25.40;61.00;;;;;;5035750;28;20411;-82
2022/05/11 11:37:32;;;;;;;5.93;3.80;;;25.20;79.10;;;;;;5035646;28;20818;-83
2022/05/11 11:40:14;;;;;;;4.80;3.10;;;25.30;79.00;;;;;;5038770;28;20936;-87
2022/05/11 11:42:43;;;;;;;4.63;2.90;;;25.30;56.80;;;;;;5053076;28;20420;-85
2022/05/11 11:45:31;;;;;;;4.90;3.10;;;25.60;58.90;;;;;;5054255;28;20783;-82
2022/05/11 11:48:21;;;;;;;3.00;2.70;;;26.30;61.70;;;;;;5054153;28;21009;-83
2022/05/11 11:50:59;;;;;;;5.50;3.83;;;26.30;48.80;;;;;;5054335;28;20426;-84
2022/05/11 11:53:30;;;;;;;6.77;3.13;;;26.40;42.90;;;;;;5054056;28;20478;-86
2022/05/11 11:56:15;;;;;;;3.73;2.70;;;26.70;48.30;;;;;;5054183;28;20408;-86
2022/05/11 11:58:41;;;;;;;6.07;3.40;;;27.20;54.50;;;;;;5035620;28;20801;-82
2022/05/11 12:01:10;;;;;;;3.90;3.07;;;26.90;31.80;;;;;;5053902;28;20416;-85
2022/05/11 12:03:51;;;;;;;3.57;3.00;;;27.30;38.50;;;;;;5054460;28;20581;-81
2022/05/11 12:17:36;;;;;;;5.73;3.03;;;25.60;16.90;;;;;;5055160;28;20462;-83
2022/05/11 12:20:17;;;;;;;4.07;3.50;;;25.90;18.60;;;;;;5054987;28;20479;-82
2022/05/11 12:22:54;;;;;;;3.60;3.00;;;25.20;17.10;;;;;;5055092;28;20943;-82
2022/05/11 12:25:26;;;;;;;3.23;2.80;;;25.20;15.20;;;;;;5054733;28;20415;-80
2022/05/11 12:27:53;;;;;;;3.63;3.30;;;25.40;15.10;;;;;;5054473;28;20424;-82
2022/05/11 12:30:19;;;;;;;6.47;3.03;;;25.20;9.60;;;;;;5054777;28;20424;-83
2022/05/11 12:32:58;;;;;;;3.57;1.80;;;25.40;15.20;;;;;;5054638;28;20807;-79
2022/05/11 12:35:38;;;;;;;4.70;3.10;;;25.30;20.80;;;;;;5054787;28;20626;-80
2022/05/11 12:38:09;;;;;;;4.73;2.63;;;24.70;7.90;;;;;;5055609;28;20787;-79
2022/05/11 12:40:47;;;;;;;3.53;2.20;;;24.90;9.70;;;;;;5055772;28;20420;-79
2022/05/11 12:43:29;;;;;;;4.00;2.37;;;25.00;10.70;;;;;;5056658;28;20422;-81
2022/05/11 12:46:02;;;;;;;3.90;2.57;;;24.80;6.80;;;;;;5037949;28;20775;-83
2022/05/11 12:48:34;;;;;;;4.60;2.53;;;24.70;9.50;;;;;;5055436;28;20431;-82
2022/05/11 12:51:12;;;;;;;3.23;1.73;;;25.40;11.20;;;;;;5055296;28;20900;-82
2022/05/11 12:53:47;;;;;;;4.80;2.33;;;25.10;7.00;;;;;;5038737;28;20475;-82
2022/05/11 12:56:34;;;;;;;5.83;2.83;;;25.00;8.70;;;;;;5037706;28;20432;-83
2022/05/11 12:59:18;;;;;;;5.00;2.70;;;25.00;10.40;;;;;;5056508;28;20780;-80
2022/05/11 13:01:44;;;;;;;5.13;2.13;;;25.10;12.70;;;;;;5054386;28;20908;-83
2022/05/11 13:04:46;;;;;;;5.00;2.70;;;24.70;10.90;;;;;;5055766;28;20478;-83
2022/05/11 13:07:12;;;;;;;4.60;2.60;;;25.10;15.00;;;;;;5055389;28;20177;-83
2022/05/11 13:09:43;;;;;;;3.77;2.37;;;26.30;15.00;;;;;;5053946;28;20427;-82
2022/05/11 13:12:13;;;;;;;4.13;2.00;;;26.30;6.50;;;;;;5053842;28;20475;-82
2022/05/11 13:14:46;;;;;;;4.03;2.23;;;26.60;8.90;;;;;;5053424;28;20413;-83
2022/05/11 13:17:46;;;;;;;5.57;2.30;;;26.10;1.00;;;;;;5053805;28;20939;-79
2022/05/11 13:20:17;;;;;;;3.43;2.50;;;25.50;1.00;;;;;;5046119;28;20778;-83
2022/05/11 13:23:00;;;;;;;4.80;2.10;;;25.00;1.00;;;;;;5035682;28;20446;-83
2022/05/11 13:25:49;;;;;;;3.10;2.23;;;24.70;1.00;;;;;;5035777;28;20852;-82
2022/05/11 13:28:26;;;;;;;5.30;2.40;;;24.40;1.00;;;;;;5053144;28;20416;-81
2022/05/11 13:30:54;;;;;;;3.63;2.40;;;25.10;1.50;;;;;;5053502;28;20760;-81
2022/05/11 13:33:41;;;;;;;3.87;1.90;;;25.10;11.30;;;;;;5053353;28;20464;-81
2022/05/11 13:36:17;;;;;;;3.10;2.47;;;25.40;1.00;;;;;;5035417;28;20780;-81
2022/05/11 13:38:52;;;;;;;2.37;1.90;;;25.80;1.00;;;;;;5053368;28;20415;-84
2022/05/11 13:41:26;;;;;;;3.10;1.93;;;25.30;1.00;;;;;;5053179;28;20419;-81